Terminal Aerodrome Forecast
Issued by NWS

Home | Current Version | Previous Version | Text Only | Print | Product List | Glossary On
Versions: 1 2 3 4 5 6 7 8 9 10 11 12 13
000
FTUS45 KPSR 311120
TAFBLH
TAF
KBLH 311120Z 3112/0112 19008KT P6SM BKN250
      TEMPO 3112/3116 VRB04KT
     FM311900 18011G20KT P6SM BKN250
     FM010200 23010KT P6SM SCT250=

USA.gov is the U.S. government's official web portal to all federal, state and local government web resources and services.